createdAt,value
2023-02-22T10:31:27.138Z,7.18
2023-02-22T10:34:12.493Z,5.30
2023-02-22T10:37:38.726Z,5.45
2023-02-22T10:41:24.109Z,4.95
2023-02-22T10:44:49.165Z,4.93
2023-02-22T10:47:32.853Z,5.28
2023-02-22T10:51:02.181Z,4.32
2023-02-22T10:54:37.706Z,7.63
2023-02-22T11:01:40.752Z,9.50
2023-02-22T11:41:16.749Z,4.75
2023-02-22T11:43:44.393Z,4.30
2023-02-22T11:46:17.917Z,4.63
2023-02-22T11:48:59.670Z,4.03
2023-02-22T11:51:45.057Z,3.67
2023-02-22T11:54:31.303Z,4.45
2023-02-22T11:57:07.218Z,4.60
2023-02-22T11:59:34.431Z,6.03
2023-02-22T12:02:06.629Z,4.57
2023-02-22T12:05:40.546Z,3.90
2023-02-22T12:08:19.290Z,6.20
2023-02-22T12:10:49.267Z,5.57
2023-02-22T12:13:42.074Z,4.57
2023-02-22T12:16:08.464Z,3.67
2023-02-22T12:18:55.187Z,5.43
2023-02-22T12:21:23.510Z,6.18
2023-02-22T12:23:51.669Z,5.60
2023-02-22T12:26:20.731Z,5.53
2023-02-22T12:28:48.688Z,6.10
2023-02-22T12:31:18.762Z,6.28
2023-02-22T12:33:49.474Z,4.90
2023-02-22T12:36:18.898Z,6.18
2023-02-22T12:38:49.082Z,4.30
2023-02-22T12:41:34.028Z,6.20
2023-02-22T12:44:05.302Z,5.13
2023-02-22T12:46:36.136Z,5.55
2023-02-22T12:49:02.534Z,5.13
2023-02-22T12:51:42.253Z,4.93
2023-02-22T12:54:13.483Z,5.40
2023-02-22T12:56:44.379Z,7.68
2023-02-22T12:59:19.806Z,5.10
2023-02-22T13:01:50.313Z,5.95
2023-02-22T13:04:20.866Z,4.07
2023-02-22T13:06:53.902Z,5.25
2023-02-22T13:09:38.392Z,3.38
2023-02-22T13:12:29.199Z,5.65
2023-02-22T13:15:18.977Z,5.82
2023-02-22T13:17:45.359Z,5.78
2023-02-22T13:20:19.960Z,4.18
2023-02-22T13:22:49.436Z,3.92
2023-02-22T13:25:39.099Z,6.45
2023-02-22T13:28:08.486Z,4.68
2023-02-22T13:30:41.238Z,5.03
2023-02-22T13:33:20.226Z,4.53
2023-02-22T13:35:49.689Z,4.25
2023-02-22T13:38:22.060Z,4.15
2023-02-22T13:41:02.821Z,5.25
2023-02-22T13:43:48.188Z,7.05
2023-02-22T13:46:20.266Z,4.68
2023-02-22T13:49:05.663Z,5.18
2023-02-22T13:51:32.016Z,3.58
2023-02-22T13:54:03.410Z,4.18
2023-02-22T13:56:30.396Z,3.55
2023-02-22T13:59:06.389Z,3.28
2023-02-22T14:01:35.889Z,4.25
2023-02-22T14:04:21.059Z,5.00
2023-02-22T14:06:47.434Z,5.05
2023-02-22T14:09:19.020Z,4.45
2023-02-22T14:11:54.130Z,5.18
2023-02-22T14:14:20.773Z,3.97
2023-02-22T14:17:07.102Z,3.50
2023-02-22T14:19:36.081Z,3.42
2023-02-22T14:22:03.771Z,4.10
2023-02-22T14:24:42.656Z,3.38
2023-02-22T14:27:09.304Z,1.63
2023-02-22T14:29:35.868Z,2.85
2023-02-22T14:32:10.955Z,2.53
2023-02-22T14:34:41.832Z,3.38
2023-02-22T14:37:25.216Z,3.85
2023-02-22T14:39:57.856Z,2.97
2023-02-22T14:42:24.236Z,3.63
2023-02-22T14:44:59.904Z,4.13
2023-02-22T14:47:43.628Z,3.95
2023-02-22T14:50:16.520Z,3.20
2023-02-22T14:52:43.423Z,4.43
2023-02-22T14:55:23.898Z,5.60
2023-02-22T14:58:02.184Z,3.55
2023-02-22T15:00:37.548Z,4.43
2023-02-22T15:03:04.879Z,2.92
2023-02-22T15:05:38.674Z,4.43
2023-02-22T15:08:07.041Z,5.25
2023-02-22T15:10:46.745Z,3.22
2023-02-22T15:13:15.245Z,3.92
2023-02-22T15:15:49.595Z,3.03
2023-02-22T15:18:22.117Z,3.60
2023-02-22T15:20:56.077Z,4.10
2023-02-22T15:23:25.051Z,3.80
2023-02-22T15:25:51.545Z,25.00
2023-02-22T15:28:18.450Z,10.18
2023-02-22T15:30:44.962Z,7.45
2023-02-22T15:33:16.788Z,5.40
2023-02-22T15:35:43.333Z,6.68
2023-02-22T15:38:12.763Z,10.82
2023-02-22T15:40:43.098Z,6.00
2023-02-22T15:43:17.516Z,7.75
2023-02-22T15:45:45.134Z,4.43
2023-02-22T15:48:12.239Z,4.32
2023-02-22T15:50:39.114Z,4.53
2023-02-22T15:53:09.394Z,5.88
2023-02-22T15:55:35.714Z,5.65
2023-02-22T15:58:08.334Z,5.10
2023-02-22T16:00:36.356Z,5.50
2023-02-22T16:03:07.676Z,4.20
2023-02-22T16:05:38.751Z,5.88
2023-02-22T16:08:12.759Z,3.65
2023-02-22T16:10:41.236Z,4.97
2023-02-22T16:13:32.442Z,5.60
2023-02-22T16:16:04.408Z,8.52
2023-02-22T16:18:38.737Z,4.47
2023-02-22T16:21:06.998Z,3.75
2023-02-22T16:23:44.806Z,3.70
2023-02-22T16:26:25.355Z,4.78
2023-02-22T16:29:12.007Z,4.05
2023-02-22T16:31:39.298Z,5.95
2023-02-22T16:34:06.893Z,5.18
2023-02-22T16:36:44.149Z,3.17
2023-02-22T16:39:30.067Z,4.70
2023-02-22T16:41:58.599Z,4.78
2023-02-22T16:44:25.377Z,3.78
2023-02-22T16:46:52.302Z,5.30
2023-02-22T16:49:21.076Z,3.47
2023-02-22T16:51:49.297Z,4.80
2023-02-22T16:54:20.846Z,3.47
2023-02-22T16:56:47.245Z,4.00
2023-02-22T16:59:16.551Z,6.53
2023-02-22T17:01:43.316Z,3.90
2023-02-22T17:04:17.824Z,4.80
2023-02-22T17:06:44.582Z,2.97
2023-02-22T17:09:11.378Z,6.20
2023-02-22T17:11:38.076Z,25.02
2023-02-22T17:14:04.960Z,22.67
2023-02-22T17:16:31.412Z,19.13
2023-02-22T17:18:57.806Z,13.25
2023-02-22T17:21:24.176Z,9.73
2023-02-22T17:23:50.584Z,36.15
2023-02-22T17:26:17.766Z,74.68
2023-02-22T17:28:44.418Z,74.32
2023-02-22T17:31:17.624Z,47.50
2023-02-22T17:33:46.978Z,48.03
2023-02-22T17:36:13.530Z,24.80
2023-02-22T17:38:42.229Z,32.78
2023-02-22T17:41:08.904Z,19.52
2023-02-22T17:43:35.295Z,15.13
2023-02-22T17:46:07.797Z,15.27
2023-02-22T17:48:36.704Z,30.73
2023-02-22T17:51:07.088Z,21.20
2023-02-22T17:53:36.477Z,24.45
2023-02-22T17:56:13.450Z,21.60
2023-02-22T17:58:43.326Z,18.67
2023-02-22T18:01:20.739Z,29.48
2023-02-22T18:03:47.524Z,22.50
2023-02-22T18:06:17.521Z,25.08
2023-02-22T18:08:44.107Z,23.60
2023-02-22T18:11:10.472Z,25.27
2023-02-22T18:13:36.850Z,23.23
2023-02-22T18:16:05.565Z,21.50
2023-02-22T18:18:32.555Z,21.02
2023-02-22T18:21:02.013Z,19.02
2023-02-22T18:23:29.819Z,19.73
2023-02-22T18:26:09.575Z,18.95
2023-02-22T18:28:36.948Z,17.90
2023-02-22T18:31:14.484Z,20.05
2023-02-22T18:33:45.282Z,19.75
2023-02-22T18:36:12.306Z,19.52
2023-02-22T18:38:44.822Z,16.02
2023-02-22T18:41:12.727Z,16.25
2023-02-22T18:43:39.707Z,13.57
2023-02-22T18:46:07.164Z,10.40
2023-02-22T18:48:33.601Z,13.38
2023-02-22T18:51:01.386Z,18.52
2023-02-22T18:53:28.636Z,19.92
2023-02-22T18:55:55.571Z,15.13
2023-02-22T18:58:24.384Z,15.55
2023-02-22T19:00:50.897Z,24.50
2023-02-22T19:03:17.253Z,16.10
2023-02-22T19:05:43.628Z,17.45
2023-02-22T19:08:11.437Z,17.83
2023-02-22T19:10:38.686Z,14.90
2023-02-22T19:13:10.776Z,14.73
2023-02-22T19:15:38.156Z,18.33
2023-02-22T19:18:04.689Z,15.98
2023-02-22T19:20:33.193Z,18.17
2023-02-22T19:23:00.364Z,14.10
2023-02-22T19:25:29.408Z,14.73
2023-02-22T19:27:58.780Z,16.75
2023-02-22T19:30:25.259Z,15.90
2023-02-22T19:32:52.240Z,10.73
2023-02-22T19:35:26.170Z,10.82
2023-02-22T19:37:53.927Z,13.07
2023-02-22T19:40:21.986Z,12.45
2023-02-22T19:42:48.766Z,14.82
2023-02-22T19:45:15.242Z,13.93
2023-02-22T19:47:41.936Z,19.30
2023-02-22T19:50:08.486Z,15.40
2023-02-22T19:52:35.606Z,13.32
2023-02-22T19:55:01.961Z,14.45
2023-02-22T19:57:30.680Z,17.65
2023-02-22T19:59:57.132Z,14.50
2023-02-22T20:02:27.261Z,16.45
2023-02-22T20:04:55.205Z,14.98
2023-02-22T20:07:21.659Z,11.15
2023-02-22T20:09:49.688Z,12.77
2023-02-22T20:12:16.108Z,16.10
2023-02-22T20:14:42.513Z,11.90
2023-02-22T20:17:10.199Z,10.60
2023-02-22T20:19:40.540Z,13.30
2023-02-22T20:22:06.966Z,16.27
2023-02-22T20:24:35.704Z,19.27
2023-02-22T20:27:02.094Z,18.38
2023-02-22T20:29:31.505Z,20.23
2023-02-22T20:31:59.303Z,14.10
2023-02-22T20:34:27.144Z,15.48
2023-02-22T20:36:53.975Z,14.88
2023-02-22T20:39:20.397Z,17.33
2023-02-22T20:41:47.047Z,16.85
2023-02-22T20:44:17.183Z,15.77
2023-02-22T20:46:44.110Z,12.70
2023-02-22T20:49:14.941Z,11.88
2023-02-22T20:51:41.952Z,16.75
2023-02-22T20:54:11.521Z,12.38
2023-02-22T20:56:39.366Z,13.98
2023-02-22T20:59:05.872Z,11.27
2023-02-22T21:01:32.539Z,12.55
2023-02-22T21:04:00.660Z,18.90
2023-02-22T21:06:27.402Z,18.77
2023-02-22T21:08:55.032Z,21.85
2023-02-22T21:11:22.550Z,20.20
2023-02-22T21:13:49.065Z,17.75
2023-02-22T21:16:28.117Z,22.35
2023-02-22T21:18:55.566Z,24.42
2023-02-22T21:21:22.488Z,23.65
2023-02-22T21:23:51.351Z,15.63
2023-02-22T21:26:19.342Z,23.13
2023-02-22T21:28:51.424Z,13.50
2023-02-22T21:31:18.868Z,12.13
2023-02-22T21:33:48.202Z,10.95
2023-02-22T21:36:14.854Z,9.32
2023-02-22T21:38:42.334Z,9.55
2023-02-22T21:41:12.601Z,8.45
2023-02-22T21:43:40.159Z,8.77
2023-02-22T21:46:07.217Z,9.70
2023-02-22T21:48:34.891Z,13.15
2023-02-22T21:51:08.733Z,10.40
2023-02-22T21:53:35.307Z,10.23
2023-02-22T21:56:05.512Z,10.27
2023-02-22T21:58:31.922Z,14.73
2023-02-22T22:01:03.746Z,10.70
2023-02-22T22:03:30.171Z,11.15
2023-02-22T22:05:56.521Z,12.25
2023-02-22T22:08:25.068Z,13.57
2023-02-22T22:10:52.157Z,17.05
2023-02-22T22:13:18.573Z,18.08
2023-02-22T22:15:44.996Z,16.15
2023-02-22T22:18:11.891Z,14.93
2023-02-22T22:20:38.779Z,17.45
2023-02-22T22:23:05.925Z,14.15
2023-02-22T22:25:32.645Z,17.30
2023-02-22T22:28:01.145Z,14.75
2023-02-22T22:30:28.386Z,14.00
2023-02-22T22:32:55.325Z,14.75
2023-02-22T22:35:22.681Z,19.95
2023-02-22T22:37:50.957Z,13.05
2023-02-22T22:40:18.002Z,15.23
2023-02-22T22:42:45.573Z,19.17
2023-02-22T22:45:13.016Z,19.02
2023-02-22T22:47:41.036Z,21.25
2023-02-22T22:50:07.968Z,15.63
2023-02-22T22:52:35.404Z,17.17
2023-02-22T22:55:05.171Z,16.48
2023-02-22T22:57:31.581Z,17.40
2023-02-22T23:00:00.407Z,18.98
2023-02-22T23:02:26.824Z,14.50
2023-02-22T23:04:53.331Z,16.42
2023-02-22T23:09:49.498Z,14.65
2023-02-22T23:12:17.657Z,18.15
2023-02-22T23:14:44.493Z,14.18
2023-02-22T23:17:16.138Z,17.52
2023-02-22T23:19:44.890Z,14.23
2023-02-22T23:22:14.122Z,16.55
2023-02-22T23:24:44.520Z,12.77
2023-02-22T23:27:12.173Z,14.48
2023-02-22T23:29:42.033Z,14.68
2023-02-22T23:32:09.088Z,14.32
2023-02-22T23:34:36.536Z,13.02
2023-02-22T23:37:09.912Z,13.57
2023-02-22T23:39:36.322Z,18.20
2023-02-22T23:42:03.885Z,11.23
2023-02-22T23:44:30.369Z,14.15
2023-02-22T23:46:56.783Z,11.30
2023-02-22T23:49:25.330Z,15.73
2023-02-22T23:51:52.589Z,10.18
2023-02-22T23:54:19.822Z,16.45
2023-02-22T23:56:58.549Z,10.90
2023-02-22T23:59:26.120Z,11.95
